CFB Gagetown, New Brunswick

Past 24 Hour Conditions

Date / Time
(AST)
Conditions Temp
(°F)
Humidity
(%)
Dew Point
(°F)
Wind
(mph)
Pressure
(inches)
Visibility
(miles)
26 November 2014
2:00 Partly Cloudy 40   61 28 SSW 8 30.0 15
1:00 Partly Cloudy 40   62 28 SW 6 30.0 15
00:00 Partly Cloudy 41 66 30 SW 6 29.9 15
25 November 2014
23:00 Mainly Clear 42 62 30 SSW 6 29.9 15
22:00 Partly Cloudy 43 59 30 WSW 6 29.9 15
21:00 Mostly Cloudy 46 55 31 W 10 29.9 15
20:00 Mostly Cloudy 48 56 33 W 9 29.9 15
19:00 Cloudy 50 61 37 W 7 29.8 15
18:00 Mostly Cloudy 50 62 38 W 3 29.8 15
17:00 Partly Cloudy 52 60 38 W 8 29.8 15
16:00 Cloudy 55 58 40 WNW 8 29.7 15
15:00 Cloudy 57 63 44 WSW 9 29.7 15
14:00 Cloudy 58 74 50 WSW 10 29.7 15
13:00 Mostly Cloudy 57 79 51 WSW 11 29.7 15
12:00 Partly Cloudy 59   81 53 SW 14 29.7 15
11:00 Mostly Cloudy 57 82 52 SSW 9 29.7 12
10:00 Cloudy 57 84 52 SSW 13 29.7 12
9:00 Mostly Cloudy 54 92 52 S 15 29.6 12
8:00 Mostly Cloudy 54 94 52 SSW 8 29.6 12
7:00 Cloudy 55 91 53 SSW 10 29.6 15
6:00 Mainly Clear 55 94 53 S 9 29.6 15
5:00 Mainly Clear 55 92 53 S 9 29.6 15
4:00 Partly Cloudy 56 93 54 SSW 8 gust 17 29.6 15
3:00 Mostly Cloudy 57 94 55 S 11 gust 18 29.6 15
2:00 Mostly Cloudy 58 94 56 S 11 gust 18 29.6 15
N/A Not available
↑ Highest temperature
↓ Lowest temperature

If you require additional historical weather information, please visit Climate Data Online.

Date modified: